sensor_id;sensor_type;location;lat;lon;timestamp;P1;durP1;ratioP1;P2;durP2;ratioP2
38427;SDS011;24211;49.980;19.776;2022-12-18T00:04:03;17.52;;;4.97;;
38427;SDS011;24211;49.980;19.776;2022-12-18T00:06:33;16.02;;;4.40;;
38427;SDS011;24211;49.980;19.776;2022-12-18T00:09:02;18.02;;;5.75;;
38427;SDS011;24211;49.980;19.776;2022-12-18T00:11:30;21.45;;;5.72;;
38427;SDS011;24211;49.980;19.776;2022-12-18T00:13:58;17.10;;;5.47;;
38427;SDS011;24211;49.980;19.776;2022-12-18T00:16:27;15.77;;;5.18;;
38427;SDS011;24211;49.980;19.776;2022-12-18T00:18:56;19.17;;;6.10;;
38427;SDS011;24211;49.980;19.776;2022-12-18T00:21:24;19.15;;;6.05;;
38427;SDS011;24211;49.980;19.776;2022-12-18T00:23:53;16.20;;;5.45;;
38427;SDS011;24211;49.980;19.776;2022-12-18T00:26:25;15.38;;;4.60;;
38427;SDS011;24211;49.980;19.776;2022-12-18T00:29:00;19.70;;;5.45;;
38427;SDS011;24211;49.980;19.776;2022-12-18T00:31:31;16.87;;;5.00;;
38427;SDS011;24211;49.980;19.776;2022-12-18T00:34:01;17.90;;;5.53;;
38427;SDS011;24211;49.980;19.776;2022-12-18T00:36:30;16.05;;;5.30;;
38427;SDS011;24211;49.980;19.776;2022-12-18T00:39:02;13.75;;;4.25;;
38427;SDS011;24211;49.980;19.776;2022-12-18T00:41:31;16.15;;;5.50;;
38427;SDS011;24211;49.980;19.776;2022-12-18T00:44:18;16.95;;;5.07;;
38427;SDS011;24211;49.980;19.776;2022-12-18T00:46:47;16.58;;;5.25;;
38427;SDS011;24211;49.980;19.776;2022-12-18T00:49:16;15.90;;;5.20;;
38427;SDS011;24211;49.980;19.776;2022-12-18T00:51:45;18.88;;;5.40;;
38427;SDS011;24211;49.980;19.776;2022-12-18T00:54:14;19.55;;;5.38;;
38427;SDS011;24211;49.980;19.776;2022-12-18T00:56:43;19.08;;;5.40;;
38427;SDS011;24211;49.980;19.776;2022-12-18T00:59:17;16.08;;;5.03;;
38427;SDS011;24211;49.980;19.776;2022-12-18T01:01:45;15.77;;;5.07;;
38427;SDS011;24211;49.980;19.776;2022-12-18T01:04:13;16.38;;;5.45;;
38427;SDS011;24211;49.980;19.776;2022-12-18T01:06:44;18.13;;;5.75;;
38427;SDS011;24211;49.980;19.776;2022-12-18T01:09:11;19.13;;;5.43;;
38427;SDS011;24211;49.980;19.776;2022-12-18T01:11:39;19.40;;;5.32;;
38427;SDS011;24211;49.980;19.776;2022-12-18T01:14:06;15.02;;;5.30;;
38427;SDS011;24211;49.980;19.776;2022-12-18T01:16:36;15.27;;;5.72;;
38427;SDS011;24211;49.980;19.776;2022-12-18T01:19:04;16.90;;;5.25;;
38427;SDS011;24211;49.980;19.776;2022-12-18T01:21:31;16.20;;;5.00;;
38427;SDS011;24211;49.980;19.776;2022-12-18T01:24:04;16.95;;;5.10;;
38427;SDS011;24211;49.980;19.776;2022-12-18T01:26:32;15.82;;;5.53;;
38427;SDS011;24211;49.980;19.776;2022-12-18T01:29:00;18.73;;;5.60;;
38427;SDS011;24211;49.980;19.776;2022-12-18T01:31:29;20.50;;;5.97;;
38427;SDS011;24211;49.980;19.776;2022-12-18T01:34:01;17.02;;;5.82;;
38427;SDS011;24211;49.980;19.776;2022-12-18T01:36:32;14.38;;;5.03;;
38427;SDS011;24211;49.980;19.776;2022-12-18T01:39:03;16.60;;;5.53;;
38427;SDS011;24211;49.980;19.776;2022-12-18T01:41:34;15.48;;;5.55;;
38427;SDS011;24211;49.980;19.776;2022-12-18T01:47:43;18.50;;;5.60;;
38427;SDS011;24211;49.980;19.776;2022-12-18T01:50:22;20.85;;;6.63;;
38427;SDS011;24211;49.980;19.776;2022-12-18T01:53:04;19.70;;;5.90;;
38427;SDS011;24211;49.980;19.776;2022-12-18T01:55:49;17.88;;;5.80;;
38427;SDS011;24211;49.980;19.776;2022-12-18T01:58:23;21.23;;;5.95;;
38427;SDS011;24211;49.980;19.776;2022-12-18T02:01:04;18.33;;;5.78;;
38427;SDS011;24211;49.980;19.776;2022-12-18T02:03:32;17.30;;;5.60;;
38427;SDS011;24211;49.980;19.776;2022-12-18T02:11:53;15.98;;;5.68;;
38427;SDS011;24211;49.980;19.776;2022-12-18T02:17:43;20.75;;;5.57;;
38427;SDS011;24211;49.980;19.776;2022-12-18T02:20:33;17.02;;;5.63;;
38427;SDS011;24211;49.980;19.776;2022-12-18T02:29:12;20.27;;;5.82;;
38427;SDS011;24211;49.980;19.776;2022-12-18T02:31:53;17.38;;;5.60;;
38427;SDS011;24211;49.980;19.776;2022-12-18T02:34:28;20.80;;;6.13;;
38427;SDS011;24211;49.980;19.776;2022-12-18T02:37:00;24.02;;;6.30;;
38427;SDS011;24211;49.980;19.776;2022-12-18T02:39:34;20.77;;;6.10;;
38427;SDS011;24211;49.980;19.776;2022-12-18T02:42:05;20.48;;;5.78;;
38427;SDS011;24211;49.980;19.776;2022-12-18T02:44:46;19.20;;;6.10;;
38427;SDS011;24211;49.980;19.776;2022-12-18T02:47:22;19.17;;;6.00;;
38427;SDS011;24211;49.980;19.776;2022-12-18T02:52:44;18.80;;;5.65;;
38427;SDS011;24211;49.980;19.776;2022-12-18T02:55:45;16.38;;;5.40;;
38427;SDS011;24211;49.980;19.776;2022-12-18T02:58:56;19.15;;;5.47;;
38427;SDS011;24211;49.980;19.776;2022-12-18T03:01:50;17.40;;;5.95;;
38427;SDS011;24211;49.980;19.776;2022-12-18T03:04:49;20.13;;;5.47;;
38427;SDS011;24211;49.980;19.776;2022-12-18T03:07:47;18.35;;;5.93;;
38427;SDS011;24211;49.980;19.776;2022-12-18T03:10:26;17.95;;;5.43;;
38427;SDS011;24211;49.980;19.776;2022-12-18T03:13:04;20.23;;;6.05;;
38427;SDS011;24211;49.980;19.776;2022-12-18T03:15:44;20.95;;;5.95;;
38427;SDS011;24211;49.980;19.776;2022-12-18T03:18:27;20.45;;;5.72;;
38427;SDS011;24211;49.980;19.776;2022-12-18T03:21:04;17.73;;;5.75;;
38427;SDS011;24211;49.980;19.776;2022-12-18T03:23:39;17.75;;;5.55;;
38427;SDS011;24211;49.980;19.776;2022-12-18T03:26:15;17.27;;;5.60;;
38427;SDS011;24211;49.980;19.776;2022-12-18T03:28:53;18.98;;;5.45;;
38427;SDS011;24211;49.980;19.776;2022-12-18T03:31:37;15.55;;;5.47;;
38427;SDS011;24211;49.980;19.776;2022-12-18T03:34:11;18.25;;;5.35;;
38427;SDS011;24211;49.980;19.776;2022-12-18T03:36:46;16.15;;;5.75;;
38427;SDS011;24211;49.980;19.776;2022-12-18T03:39:14;18.90;;;6.00;;
38427;SDS011;24211;49.980;19.776;2022-12-18T03:41:52;17.73;;;5.57;;
38427;SDS011;24211;49.980;19.776;2022-12-18T03:44:42;18.90;;;5.83;;
38427;SDS011;24211;49.980;19.776;2022-12-18T03:47:40;17.33;;;5.57;;
38427;SDS011;24211;49.980;19.776;2022-12-18T03:50:54;16.33;;;5.55;;
38427;SDS011;24211;49.980;19.776;2022-12-18T03:53:39;17.85;;;5.72;;
38427;SDS011;24211;49.980;19.776;2022-12-18T03:56:25;17.73;;;5.90;;
38427;SDS011;24211;49.980;19.776;2022-12-18T03:58:58;18.48;;;5.45;;
38427;SDS011;24211;49.980;19.776;2022-12-18T04:04:02;16.52;;;5.10;;
38427;SDS011;24211;49.980;19.776;2022-12-18T04:06:35;14.00;;;5.22;;
38427;SDS011;24211;49.980;19.776;2022-12-18T04:09:07;16.80;;;5.55;;
38427;SDS011;24211;49.980;19.776;2022-12-18T04:11:39;19.17;;;5.55;;
38427;SDS011;24211;49.980;19.776;2022-12-18T04:14:12;15.70;;;5.07;;
38427;SDS011;24211;49.980;19.776;2022-12-18T04:16:45;16.20;;;5.38;;
38427;SDS011;24211;49.980;19.776;2022-12-18T04:19:15;17.75;;;5.82;;
38427;SDS011;24211;49.980;19.776;2022-12-18T04:21:44;17.10;;;5.40;;
38427;SDS011;24211;49.980;19.776;2022-12-18T04:24:13;18.83;;;6.20;;
38427;SDS011;24211;49.980;19.776;2022-12-18T04:26:49;15.43;;;4.78;;
38427;SDS011;24211;49.980;19.776;2022-12-18T04:29:21;14.95;;;5.20;;
38427;SDS011;24211;49.980;19.776;2022-12-18T04:31:48;17.92;;;5.13;;
38427;SDS011;24211;49.980;19.776;2022-12-18T04:34:16;14.07;;;5.35;;
38427;SDS011;24211;49.980;19.776;2022-12-18T04:36:49;16.08;;;5.30;;
38427;SDS011;24211;49.980;19.776;2022-12-18T04:39:16;14.15;;;5.35;;
38427;SDS011;24211;49.980;19.776;2022-12-18T04:41:45;19.33;;;5.80;;
38427;SDS011;24211;49.980;19.776;2022-12-18T04:44:12;16.10;;;5.45;;
38427;SDS011;24211;49.980;19.776;2022-12-18T04:46:40;16.63;;;5.15;;
38427;SDS011;24211;49.980;19.776;2022-12-18T04:49:08;15.90;;;5.50;;
38427;SDS011;24211;49.980;19.776;2022-12-18T04:51:37;16.55;;;5.90;;
38427;SDS011;24211;49.980;19.776;2022-12-18T04:54:04;15.73;;;5.32;;
38427;SDS011;24211;49.980;19.776;2022-12-18T04:56:31;17.73;;;5.60;;
38427;SDS011;24211;49.980;19.776;2022-12-18T04:58:59;17.38;;;5.57;;
38427;SDS011;24211;49.980;19.776;2022-12-18T05:01:27;20.13;;;6.25;;
38427;SDS011;24211;49.980;19.776;2022-12-18T05:04:02;20.15;;;5.57;;
38427;SDS011;24211;49.980;19.776;2022-12-18T05:06:30;18.15;;;6.03;;
38427;SDS011;24211;49.980;19.776;2022-12-18T05:08:57;14.88;;;5.45;;
38427;SDS011;24211;49.980;19.776;2022-12-18T05:11:25;20.50;;;5.90;;
38427;SDS011;24211;49.980;19.776;2022-12-18T05:13:52;16.13;;;5.70;;
38427;SDS011;24211;49.980;19.776;2022-12-18T05:16:19;17.38;;;6.07;;
38427;SDS011;24211;49.980;19.776;2022-12-18T05:18:46;19.38;;;6.00;;
38427;SDS011;24211;49.980;19.776;2022-12-18T05:21:13;18.30;;;6.43;;
38427;SDS011;24211;49.980;19.776;2022-12-18T05:23:40;16.77;;;5.53;;
38427;SDS011;24211;49.980;19.776;2022-12-18T05:26:09;19.35;;;5.82;;
38427;SDS011;24211;49.980;19.776;2022-12-18T05:28:43;17.80;;;5.88;;
38427;SDS011;24211;49.980;19.776;2022-12-18T05:31:11;17.25;;;5.55;;
38427;SDS011;24211;49.980;19.776;2022-12-18T05:33:39;18.23;;;5.80;;
38427;SDS011;24211;49.980;19.776;2022-12-18T05:36:07;18.08;;;5.97;;
38427;SDS011;24211;49.980;19.776;2022-12-18T05:38:36;16.67;;;5.80;;
38427;SDS011;24211;49.980;19.776;2022-12-18T05:41:06;18.00;;;5.97;;
38427;SDS011;24211;49.980;19.776;2022-12-18T05:43:35;19.48;;;5.95;;
38427;SDS011;24211;49.980;19.776;2022-12-18T05:46:06;16.45;;;6.05;;
38427;SDS011;24211;49.980;19.776;2022-12-18T05:51:05;17.95;;;5.47;;
38427;SDS011;24211;49.980;19.776;2022-12-18T05:53:36;16.50;;;5.65;;
38427;SDS011;24211;49.980;19.776;2022-12-18T05:56:06;17.98;;;6.07;;
38427;SDS011;24211;49.980;19.776;2022-12-18T05:58:37;18.80;;;6.45;;
38427;SDS011;24211;49.980;19.776;2022-12-18T06:03:47;20.35;;;6.90;;
38427;SDS011;24211;49.980;19.776;2022-12-18T06:06:16;21.17;;;6.53;;
38427;SDS011;24211;49.980;19.776;2022-12-18T06:08:45;19.25;;;7.03;;
38427;SDS011;24211;49.980;19.776;2022-12-18T06:11:16;20.50;;;6.57;;
38427;SDS011;24211;49.980;19.776;2022-12-18T06:13:52;24.65;;;7.22;;
38427;SDS011;24211;49.980;19.776;2022-12-18T06:16:25;23.83;;;7.32;;
38427;SDS011;24211;49.980;19.776;2022-12-18T06:18:58;29.23;;;7.68;;
38427;SDS011;24211;49.980;19.776;2022-12-18T06:21:27;28.50;;;8.32;;
38427;SDS011;24211;49.980;19.776;2022-12-18T06:23:56;33.63;;;9.60;;
38427;SDS011;24211;49.980;19.776;2022-12-18T06:26:24;30.20;;;8.70;;
38427;SDS011;24211;49.980;19.776;2022-12-18T06:28:54;34.25;;;9.88;;
38427;SDS011;24211;49.980;19.776;2022-12-18T06:31:21;42.13;;;10.73;;
38427;SDS011;24211;49.980;19.776;2022-12-18T06:33:48;43.15;;;11.35;;
38427;SDS011;24211;49.980;19.776;2022-12-18T06:36:16;42.80;;;11.95;;
38427;SDS011;24211;49.980;19.776;2022-12-18T06:38:43;44.00;;;11.82;;
38427;SDS011;24211;49.980;19.776;2022-12-18T06:41:14;46.58;;;11.18;;
38427;SDS011;24211;49.980;19.776;2022-12-18T06:43:44;40.78;;;10.80;;
38427;SDS011;24211;49.980;19.776;2022-12-18T06:46:12;39.40;;;10.15;;
38427;SDS011;24211;49.980;19.776;2022-12-18T06:48:39;40.90;;;10.65;;
38427;SDS011;24211;49.980;19.776;2022-12-18T06:51:07;34.85;;;9.95;;
38427;SDS011;24211;49.980;19.776;2022-12-18T06:53:34;46.53;;;9.90;;
38427;SDS011;24211;49.980;19.776;2022-12-18T06:56:03;37.08;;;10.27;;
38427;SDS011;24211;49.980;19.776;2022-12-18T06:58:36;37.42;;;9.82;;
38427;SDS011;24211;49.980;19.776;2022-12-18T07:01:06;35.15;;;9.57;;
38427;SDS011;24211;49.980;19.776;2022-12-18T07:03:37;29.15;;;9.02;;
38427;SDS011;24211;49.980;19.776;2022-12-18T07:06:16;29.77;;;9.07;;
38427;SDS011;24211;49.980;19.776;2022-12-18T07:08:46;32.72;;;9.18;;
38427;SDS011;24211;49.980;19.776;2022-12-18T07:11:14;27.77;;;8.30;;
38427;SDS011;24211;49.980;19.776;2022-12-18T07:13:44;27.42;;;8.65;;
38427;SDS011;24211;49.980;19.776;2022-12-18T07:16:17;25.77;;;8.07;;
38427;SDS011;24211;49.980;19.776;2022-12-18T07:18:51;25.55;;;7.95;;
38427;SDS011;24211;49.980;19.776;2022-12-18T07:24:46;28.30;;;7.70;;
38427;SDS011;24211;49.980;19.776;2022-12-18T07:27:13;21.60;;;7.65;;
38427;SDS011;24211;49.980;19.776;2022-12-18T07:29:40;26.08;;;7.30;;
38427;SDS011;24211;49.980;19.776;2022-12-18T07:32:07;27.15;;;7.50;;
38427;SDS011;24211;49.980;19.776;2022-12-18T07:34:35;21.38;;;6.93;;
38427;SDS011;24211;49.980;19.776;2022-12-18T07:37:02;25.10;;;7.65;;
38427;SDS011;24211;49.980;19.776;2022-12-18T07:39:29;27.23;;;7.60;;
38427;SDS011;24211;49.980;19.776;2022-12-18T07:41:57;21.98;;;7.03;;
38427;SDS011;24211;49.980;19.776;2022-12-18T07:44:43;22.17;;;7.20;;
38427;SDS011;24211;49.980;19.776;2022-12-18T07:47:10;23.98;;;7.65;;
38427;SDS011;24211;49.980;19.776;2022-12-18T07:49:37;23.00;;;7.35;;
38427;SDS011;24211;49.980;19.776;2022-12-18T07:52:05;21.90;;;7.43;;
38427;SDS011;24211;49.980;19.776;2022-12-18T07:54:32;23.17;;;7.85;;
38427;SDS011;24211;49.980;19.776;2022-12-18T07:56:59;20.88;;;7.50;;
38427;SDS011;24211;49.980;19.776;2022-12-18T07:59:26;27.23;;;8.48;;
38427;SDS011;24211;49.980;19.776;2022-12-18T08:01:53;23.58;;;8.05;;
38427;SDS011;24211;49.980;19.776;2022-12-18T08:04:21;26.08;;;7.88;;
38427;SDS011;24211;49.980;19.776;2022-12-18T08:06:48;20.27;;;7.40;;
38427;SDS011;24211;49.980;19.776;2022-12-18T08:09:15;25.80;;;7.85;;
38427;SDS011;24211;49.980;19.776;2022-12-18T08:11:42;21.83;;;7.70;;
38427;SDS011;24211;49.980;19.776;2022-12-18T08:14:10;23.85;;;8.30;;
38427;SDS011;24211;49.980;19.776;2022-12-18T08:16:37;25.50;;;8.68;;
38427;SDS011;24211;49.980;19.776;2022-12-18T08:19:04;27.85;;;8.95;;
38427;SDS011;24211;49.980;19.776;2022-12-18T08:21:31;25.38;;;8.57;;
38427;SDS011;24211;49.980;19.776;2022-12-18T08:23:59;25.63;;;8.68;;
38427;SDS011;24211;49.980;19.776;2022-12-18T08:26:29;28.38;;;9.18;;
38427;SDS011;24211;49.980;19.776;2022-12-18T08:33:11;22.13;;;6.85;;
38427;SDS011;24211;49.980;19.776;2022-12-18T08:35:38;31.30;;;9.40;;
38427;SDS011;24211;49.980;19.776;2022-12-18T08:38:11;28.63;;;9.30;;
38427;SDS011;24211;49.980;19.776;2022-12-18T08:40:38;26.00;;;8.93;;
38427;SDS011;24211;49.980;19.776;2022-12-18T08:43:07;27.10;;;9.18;;
38427;SDS011;24211;49.980;19.776;2022-12-18T09:23:15;30.05;;;9.68;;
38427;SDS011;24211;49.980;19.776;2022-12-18T09:25:43;32.30;;;10.93;;
38427;SDS011;24211;49.980;19.776;2022-12-18T09:28:14;30.17;;;10.10;;
38427;SDS011;24211;49.980;19.776;2022-12-18T09:30:46;33.00;;;11.20;;
38427;SDS011;24211;49.980;19.776;2022-12-18T09:33:16;33.10;;;11.40;;
38427;SDS011;24211;49.980;19.776;2022-12-18T09:35:47;31.88;;;11.18;;
38427;SDS011;24211;49.980;19.776;2022-12-18T09:51:50;30.25;;;10.38;;
38427;SDS011;24211;49.980;19.776;2022-12-18T09:58:35;30.77;;;10.38;;
38427;SDS011;24211;49.980;19.776;2022-12-18T10:03:18;32.20;;;10.75;;
38427;SDS011;24211;49.980;19.776;2022-12-18T10:28:18;31.13;;;8.90;;
38427;SDS011;24211;49.980;19.776;2022-12-18T10:30:47;30.17;;;9.80;;
38427;SDS011;24211;49.980;19.776;2022-12-18T10:33:19;29.17;;;9.77;;
38427;SDS011;24211;49.980;19.776;2022-12-18T11:03:07;32.70;;;10.40;;
38427;SDS011;24211;49.980;19.776;2022-12-18T11:06:05;32.95;;;10.88;;
38427;SDS011;24211;49.980;19.776;2022-12-18T11:09:06;22.63;;;7.78;;
38427;SDS011;24211;49.980;19.776;2022-12-18T11:11:59;32.15;;;10.55;;
38427;SDS011;24211;49.980;19.776;2022-12-18T11:17:33;30.23;;;10.52;;
38427;SDS011;24211;49.980;19.776;2022-12-18T11:20:03;29.52;;;11.18;;
38427;SDS011;24211;49.980;19.776;2022-12-18T11:22:54;33.72;;;11.82;;
38427;SDS011;24211;49.980;19.776;2022-12-18T11:25:30;31.95;;;10.95;;
38427;SDS011;24211;49.980;19.776;2022-12-18T11:28:03;38.33;;;9.38;;
38427;SDS011;24211;49.980;19.776;2022-12-18T11:31:12;34.28;;;10.98;;
38427;SDS011;24211;49.980;19.776;2022-12-18T11:33:54;35.10;;;11.10;;
38427;SDS011;24211;49.980;19.776;2022-12-18T11:36:55;33.70;;;11.18;;
38427;SDS011;24211;49.980;19.776;2022-12-18T11:39:37;35.33;;;11.00;;
38427;SDS011;24211;49.980;19.776;2022-12-18T11:42:24;28.95;;;10.77;;
38427;SDS011;24211;49.980;19.776;2022-12-18T11:50:57;33.85;;;10.90;;
38427;SDS011;24211;49.980;19.776;2022-12-18T11:53:30;29.48;;;10.13;;
38427;SDS011;24211;49.980;19.776;2022-12-18T11:58:56;31.42;;;10.07;;
38427;SDS011;24211;49.980;19.776;2022-12-18T12:01:48;29.85;;;10.43;;
38427;SDS011;24211;49.980;19.776;2022-12-18T12:07:24;34.25;;;11.35;;
38427;SDS011;24211;49.980;19.776;2022-12-18T12:33:05;34.80;;;11.50;;
38427;SDS011;24211;49.980;19.776;2022-12-18T12:36:02;29.63;;;10.93;;
38427;SDS011;24211;49.980;19.776;2022-12-18T12:38:51;33.80;;;10.38;;
38427;SDS011;24211;49.980;19.776;2022-12-18T12:41:27;32.35;;;10.30;;
38427;SDS011;24211;49.980;19.776;2022-12-18T12:44:28;34.70;;;10.85;;
38427;SDS011;24211;49.980;19.776;2022-12-18T12:47:11;33.47;;;10.63;;
38427;SDS011;24211;49.980;19.776;2022-12-18T12:49:48;30.50;;;10.18;;
38427;SDS011;24211;49.980;19.776;2022-12-18T12:52:20;28.88;;;10.40;;
38427;SDS011;24211;49.980;19.776;2022-12-18T13:06:37;32.50;;;10.02;;
38427;SDS011;24211;49.980;19.776;2022-12-18T13:09:33;28.67;;;10.00;;
38427;SDS011;24211;49.980;19.776;2022-12-18T13:12:03;28.17;;;10.38;;
38427;SDS011;24211;49.980;19.776;2022-12-18T13:20:39;28.52;;;10.23;;
38427;SDS011;24211;49.980;19.776;2022-12-18T13:23:33;27.25;;;9.48;;
38427;SDS011;24211;49.980;19.776;2022-12-18T13:31:14;27.90;;;9.15;;
38427;SDS011;24211;49.980;19.776;2022-12-18T13:39:59;27.08;;;9.00;;
38427;SDS011;24211;49.980;19.776;2022-12-18T13:42:37;24.60;;;8.82;;
38427;SDS011;24211;49.980;19.776;2022-12-18T13:45:38;22.80;;;8.13;;
38427;SDS011;24211;49.980;19.776;2022-12-18T13:48:21;26.27;;;8.52;;
38427;SDS011;24211;49.980;19.776;2022-12-18T13:50:53;24.50;;;8.50;;
38427;SDS011;24211;49.980;19.776;2022-12-18T13:53:44;23.00;;;8.65;;
38427;SDS011;24211;49.980;19.776;2022-12-18T13:56:46;27.77;;;8.77;;
38427;SDS011;24211;49.980;19.776;2022-12-18T13:59:16;25.15;;;8.07;;
38427;SDS011;24211;49.980;19.776;2022-12-18T14:09:50;22.33;;;7.85;;
38427;SDS011;24211;49.980;19.776;2022-12-18T14:12:49;26.17;;;8.52;;
38427;SDS011;24211;49.980;19.776;2022-12-18T14:15:32;23.23;;;8.50;;
38427;SDS011;24211;49.980;19.776;2022-12-18T14:21:15;22.30;;;8.02;;
38427;SDS011;24211;49.980;19.776;2022-12-18T14:24:04;22.83;;;8.10;;
38427;SDS011;24211;49.980;19.776;2022-12-18T14:26:46;23.52;;;7.95;;
38427;SDS011;24211;49.980;19.776;2022-12-18T14:32:04;24.92;;;8.77;;
38427;SDS011;24211;49.980;19.776;2022-12-18T14:34:38;24.98;;;8.10;;
38427;SDS011;24211;49.980;19.776;2022-12-18T14:37:09;24.85;;;9.38;;
38427;SDS011;24211;49.980;19.776;2022-12-18T14:39:38;23.20;;;8.40;;
38427;SDS011;24211;49.980;19.776;2022-12-18T14:42:09;25.60;;;8.60;;
38427;SDS011;24211;49.980;19.776;2022-12-18T14:44:38;22.80;;;8.48;;
38427;SDS011;24211;49.980;19.776;2022-12-18T14:47:25;23.73;;;8.65;;
38427;SDS011;24211;49.980;19.776;2022-12-18T14:49:52;23.75;;;8.68;;
38427;SDS011;24211;49.980;19.776;2022-12-18T14:52:23;23.17;;;8.65;;
38427;SDS011;24211;49.980;19.776;2022-12-18T14:54:55;21.67;;;7.78;;
38427;SDS011;24211;49.980;19.776;2022-12-18T14:57:24;23.23;;;8.40;;
38427;SDS011;24211;49.980;19.776;2022-12-18T15:00:06;26.50;;;8.88;;
38427;SDS011;24211;49.980;19.776;2022-12-18T15:02:43;24.55;;;8.80;;
38427;SDS011;24211;49.980;19.776;2022-12-18T15:05:30;24.92;;;8.32;;
38427;SDS011;24211;49.980;19.776;2022-12-18T15:07:59;25.95;;;9.07;;
38427;SDS011;24211;49.980;19.776;2022-12-18T15:10:29;28.48;;;9.35;;
38427;SDS011;24211;49.980;19.776;2022-12-18T15:18:03;67.38;;;24.02;;
38427;SDS011;24211;49.980;19.776;2022-12-18T15:20:59;51.97;;;17.80;;
38427;SDS011;24211;49.980;19.776;2022-12-18T15:26:11;37.95;;;14.75;;
38427;SDS011;24211;49.980;19.776;2022-12-18T15:28:54;40.75;;;15.27;;
38427;SDS011;24211;49.980;19.776;2022-12-18T15:31:32;56.00;;;17.67;;
38427;SDS011;24211;49.980;19.776;2022-12-18T15:36:34;62.58;;;23.13;;
38427;SDS011;24211;49.980;19.776;2022-12-18T15:39:04;41.25;;;14.48;;
38427;SDS011;24211;49.980;19.776;2022-12-18T15:41:33;40.22;;;15.90;;
38427;SDS011;24211;49.980;19.776;2022-12-18T15:44:15;79.88;;;27.42;;
38427;SDS011;24211;49.980;19.776;2022-12-18T15:46:51;49.63;;;17.48;;
38427;SDS011;24211;49.980;19.776;2022-12-18T15:49:18;46.30;;;17.00;;
38427;SDS011;24211;49.980;19.776;2022-12-18T15:51:45;62.60;;;21.33;;
38427;SDS011;24211;49.980;19.776;2022-12-18T15:54:23;45.50;;;16.95;;
38427;SDS011;24211;49.980;19.776;2022-12-18T15:57:10;45.20;;;16.42;;
38427;SDS011;24211;49.980;19.776;2022-12-18T15:59:54;44.50;;;16.15;;
38427;SDS011;24211;49.980;19.776;2022-12-18T16:02:25;48.13;;;17.00;;
38427;SDS011;24211;49.980;19.776;2022-12-18T16:04:55;49.80;;;17.23;;
38427;SDS011;24211;49.980;19.776;2022-12-18T16:07:22;76.20;;;25.50;;
38427;SDS011;24211;49.980;19.776;2022-12-18T16:09:56;82.43;;;27.17;;
38427;SDS011;24211;49.980;19.776;2022-12-18T16:12:25;56.65;;;20.30;;
38427;SDS011;24211;49.980;19.776;2022-12-18T16:14:52;45.10;;;15.88;;
38427;SDS011;24211;49.980;19.776;2022-12-18T16:17:20;48.58;;;15.95;;
38427;SDS011;24211;49.980;19.776;2022-12-18T16:19:47;46.97;;;18.65;;
38427;SDS011;24211;49.980;19.776;2022-12-18T16:22:18;52.42;;;18.50;;
38427;SDS011;24211;49.980;19.776;2022-12-18T16:24:49;46.92;;;16.85;;
38427;SDS011;24211;49.980;19.776;2022-12-18T16:27:19;44.47;;;17.75;;
38427;SDS011;24211;49.980;19.776;2022-12-18T16:29:48;50.38;;;18.30;;
38427;SDS011;24211;49.980;19.776;2022-12-18T16:32:19;40.58;;;16.42;;
38427;SDS011;24211;49.980;19.776;2022-12-18T16:34:49;46.55;;;17.00;;
38427;SDS011;24211;49.980;19.776;2022-12-18T16:37:16;46.50;;;16.92;;
38427;SDS011;24211;49.980;19.776;2022-12-18T16:39:43;44.80;;;17.20;;
38427;SDS011;24211;49.980;19.776;2022-12-18T16:42:15;48.90;;;17.83;;
38427;SDS011;24211;49.980;19.776;2022-12-18T16:44:47;47.00;;;16.92;;
38427;SDS011;24211;49.980;19.776;2022-12-18T16:47:16;45.40;;;15.75;;
38427;SDS011;24211;49.980;19.776;2022-12-18T16:49:44;42.38;;;16.25;;
38427;SDS011;24211;49.980;19.776;2022-12-18T16:52:12;40.38;;;15.88;;
38427;SDS011;24211;49.980;19.776;2022-12-18T16:54:39;40.70;;;15.10;;
38427;SDS011;24211;49.980;19.776;2022-12-18T16:57:08;40.28;;;14.90;;
38427;SDS011;24211;49.980;19.776;2022-12-18T16:59:39;41.78;;;15.18;;
38427;SDS011;24211;49.980;19.776;2022-12-18T17:02:40;39.45;;;16.05;;
38427;SDS011;24211;49.980;19.776;2022-12-18T17:05:02;40.28;;;14.65;;
38427;SDS011;24211;49.980;19.776;2022-12-18T17:07:29;40.15;;;14.57;;
38427;SDS011;24211;49.980;19.776;2022-12-18T17:09:59;36.65;;;14.38;;
38427;SDS011;24211;49.980;19.776;2022-12-18T17:12:26;40.53;;;15.05;;
38427;SDS011;24211;49.980;19.776;2022-12-18T17:14:54;34.58;;;13.73;;
38427;SDS011;24211;49.980;19.776;2022-12-18T17:17:20;35.72;;;14.18;;
38427;SDS011;24211;49.980;19.776;2022-12-18T17:19:50;38.60;;;15.23;;
38427;SDS011;24211;49.980;19.776;2022-12-18T17:22:18;41.38;;;14.90;;
38427;SDS011;24211;49.980;19.776;2022-12-18T17:24:49;39.35;;;15.05;;
38427;SDS011;24211;49.980;19.776;2022-12-18T17:27:16;46.60;;;17.75;;
38427;SDS011;24211;49.980;19.776;2022-12-18T17:29:43;59.80;;;22.23;;
38427;SDS011;24211;49.980;19.776;2022-12-18T17:32:14;46.20;;;17.85;;
38427;SDS011;24211;49.980;19.776;2022-12-18T17:34:43;53.33;;;19.70;;
38427;SDS011;24211;49.980;19.776;2022-12-18T17:37:10;55.45;;;22.58;;
38427;SDS011;24211;49.980;19.776;2022-12-18T17:39:38;51.97;;;20.65;;
38427;SDS011;24211;49.980;19.776;2022-12-18T17:42:05;51.95;;;19.75;;
38427;SDS011;24211;49.980;19.776;2022-12-18T17:44:35;47.67;;;19.08;;
38427;SDS011;24211;49.980;19.776;2022-12-18T17:47:02;53.00;;;19.30;;
38427;SDS011;24211;49.980;19.776;2022-12-18T17:49:31;55.15;;;21.05;;
38427;SDS011;24211;49.980;19.776;2022-12-18T17:51:58;51.58;;;19.65;;
38427;SDS011;24211;49.980;19.776;2022-12-18T17:54:25;46.05;;;17.23;;
38427;SDS011;24211;49.980;19.776;2022-12-18T17:56:52;46.53;;;17.95;;
38427;SDS011;24211;49.980;19.776;2022-12-18T17:59:19;46.45;;;16.85;;
38427;SDS011;24211;49.980;19.776;2022-12-18T18:01:47;42.10;;;16.00;;
38427;SDS011;24211;49.980;19.776;2022-12-18T18:04:15;41.58;;;15.65;;
38427;SDS011;24211;49.980;19.776;2022-12-18T18:06:42;41.60;;;15.95;;
38427;SDS011;24211;49.980;19.776;2022-12-18T18:09:10;41.13;;;15.43;;
38427;SDS011;24211;49.980;19.776;2022-12-18T18:11:42;42.33;;;15.13;;
38427;SDS011;24211;49.980;19.776;2022-12-18T18:14:31;40.67;;;15.18;;
38427;SDS011;24211;49.980;19.776;2022-12-18T18:16:59;43.03;;;15.23;;
38427;SDS011;24211;49.980;19.776;2022-12-18T18:19:31;39.92;;;14.60;;
38427;SDS011;24211;49.980;19.776;2022-12-18T18:21:58;40.40;;;14.13;;
38427;SDS011;24211;49.980;19.776;2022-12-18T18:24:27;41.45;;;14.82;;
38427;SDS011;24211;49.980;19.776;2022-12-18T18:26:54;46.78;;;17.70;;
38427;SDS011;24211;49.980;19.776;2022-12-18T18:29:23;69.22;;;24.05;;
38427;SDS011;24211;49.980;19.776;2022-12-18T18:31:54;71.87;;;24.27;;
38427;SDS011;24211;49.980;19.776;2022-12-18T18:34:25;65.82;;;21.98;;
38427;SDS011;24211;49.980;19.776;2022-12-18T18:36:59;63.53;;;21.38;;
38427;SDS011;24211;49.980;19.776;2022-12-18T18:39:27;54.75;;;19.85;;
38427;SDS011;24211;49.980;19.776;2022-12-18T18:41:55;59.58;;;20.70;;
38427;SDS011;24211;49.980;19.776;2022-12-18T18:44:22;70.85;;;23.70;;
38427;SDS011;24211;49.980;19.776;2022-12-18T18:46:55;61.22;;;21.75;;
38427;SDS011;24211;49.980;19.776;2022-12-18T18:49:24;68.75;;;23.80;;